createdAt,value
2017-09-09T00:00:11.814Z,17.10
2017-09-09T00:02:40.513Z,17.12
2017-09-09T00:05:08.903Z,17.10
2017-09-09T00:07:37.295Z,17.04
2017-09-09T00:10:05.604Z,17.02
2017-09-09T00:12:35.537Z,16.98
2017-09-09T00:15:03.887Z,17.04
2017-09-09T00:17:32.269Z,17.09
2017-09-09T00:20:00.565Z,17.12
2017-09-09T00:22:28.857Z,17.15
2017-09-09T00:24:57.165Z,17.12
2017-09-09T00:27:25.461Z,17.05
2017-09-09T00:29:53.793Z,16.94
2017-09-09T00:32:22.090Z,16.94
2017-09-09T00:34:50.410Z,16.93
2017-09-09T00:37:18.736Z,16.94
2017-09-09T00:39:47.081Z,16.94
2017-09-09T00:42:16.205Z,16.96
2017-09-09T00:44:44.527Z,16.96
2017-09-09T00:47:12.877Z,16.92
2017-09-09T00:49:41.226Z,16.93
2017-09-09T00:52:10.353Z,16.92
2017-09-09T00:54:38.662Z,16.93
2017-09-09T00:57:06.978Z,16.96
2017-09-09T00:59:36.034Z,16.88
2017-09-09T01:02:04.373Z,16.94
2017-09-09T01:04:32.685Z,16.88
2017-09-09T01:07:01.804Z,16.83
2017-09-09T01:09:30.114Z,16.80
2017-09-09T01:11:58.416Z,16.82
2017-09-09T01:14:26.762Z,16.85
2017-09-09T01:16:55.130Z,16.77
2017-09-09T01:19:23.531Z,16.78
2017-09-09T01:21:51.859Z,16.77
2017-09-09T01:24:20.195Z,16.73
2017-09-09T01:26:48.693Z,16.71
2017-09-09T01:29:17.024Z,16.71
2017-09-09T01:31:46.110Z,16.74
2017-09-09T01:34:15.194Z,16.73
2017-09-09T01:36:43.513Z,16.73
2017-09-09T01:39:11.813Z,16.74
2017-09-09T01:41:40.126Z,16.70
2017-09-09T01:44:08.422Z,16.73
2017-09-09T01:46:37.553Z,16.68
2017-09-09T01:49:05.861Z,16.66
2017-09-09T01:51:34.169Z,16.59
2017-09-09T01:54:03.246Z,16.58
2017-09-09T01:56:31.589Z,16.61
2017-09-09T01:58:59.903Z,16.61
2017-09-09T02:01:28.218Z,16.54
2017-09-09T02:03:56.518Z,16.55
2017-09-09T02:06:24.812Z,16.55
2017-09-09T02:08:53.111Z,16.55
2017-09-09T02:11:21.405Z,16.57
2017-09-09T02:13:50.484Z,16.56
2017-09-09T02:16:18.799Z,16.60
2017-09-09T02:18:47.132Z,16.62
2017-09-09T02:21:15.430Z,16.65
2017-09-09T02:23:43.756Z,16.67
2017-09-09T02:26:12.062Z,16.64
2017-09-09T02:28:40.357Z,16.56
2017-09-09T02:31:08.659Z,16.47
2017-09-09T02:33:36.955Z,16.45
2017-09-09T02:36:05.324Z,16.44
2017-09-09T02:38:34.383Z,16.43
2017-09-09T02:41:03.491Z,16.45
2017-09-09T02:43:32.578Z,16.42
2017-09-09T02:46:01.671Z,16.36
2017-09-09T02:48:30.773Z,16.35
2017-09-09T02:50:59.862Z,16.29
2017-09-09T02:53:28.936Z,16.31
2017-09-09T02:55:57.231Z,16.21
2017-09-09T02:58:25.546Z,16.20
2017-09-09T03:00:53.849Z,16.15
2017-09-09T03:03:22.213Z,16.11
2017-09-09T03:05:50.521Z,16.05
2017-09-09T03:08:18.862Z,16.02
2017-09-09T03:10:47.174Z,15.99
2017-09-09T03:13:15.501Z,15.93
2017-09-09T03:15:43.806Z,15.89
2017-09-09T03:18:12.109Z,15.92
2017-09-09T03:20:40.401Z,15.88
2017-09-09T03:23:08.712Z,15.90
2017-09-09T03:25:37.037Z,15.92
2017-09-09T03:28:05.350Z,15.87
2017-09-09T03:30:33.690Z,15.84
2017-09-09T03:33:02.030Z,15.85
2017-09-09T03:35:30.362Z,15.83
2017-09-09T03:37:58.658Z,15.78
2017-09-09T03:40:27.734Z,15.82
2017-09-09T03:42:56.055Z,15.78
2017-09-09T03:45:24.367Z,15.80
2017-09-09T03:47:52.686Z,15.81
2017-09-09T03:50:21.847Z,15.84
2017-09-09T03:52:50.171Z,15.80
2017-09-09T03:55:18.491Z,15.84
2017-09-09T03:57:46.802Z,15.83
2017-09-09T04:00:15.879Z,15.82
2017-09-09T04:02:44.212Z,15.78
2017-09-09T04:05:12.524Z,15.77
2017-09-09T04:07:40.854Z,15.75
2017-09-09T04:10:09.175Z,15.75
2017-09-09T04:12:37.487Z,15.75
2017-09-09T04:15:06.564Z,15.73
2017-09-09T04:17:34.866Z,15.74
2017-09-09T04:20:03.949Z,15.70
2017-09-09T04:22:32.262Z,15.66
2017-09-09T04:25:00.573Z,15.72
2017-09-09T04:27:28.883Z,15.68
2017-09-09T04:29:57.193Z,15.69
2017-09-09T04:32:25.507Z,15.69
2017-09-09T04:34:53.865Z,15.72
2017-09-09T04:37:22.177Z,15.75
2017-09-09T04:39:50.484Z,15.80
2017-09-09T04:42:19.569Z,15.83
2017-09-09T04:44:48.647Z,15.88
2017-09-09T04:47:16.967Z,15.95
2017-09-09T04:49:45.280Z,15.95
2017-09-09T04:52:13.622Z,16.00
2017-09-09T04:54:41.939Z,16.04
2017-09-09T04:57:10.277Z,16.04
2017-09-09T04:59:38.587Z,16.07
2017-09-09T05:02:06.895Z,16.11
2017-09-09T05:04:35.205Z,16.13
2017-09-09T05:07:03.505Z,16.12
2017-09-09T05:09:31.809Z,16.09
2017-09-09T05:12:00.108Z,16.08
2017-09-09T05:14:28.421Z,16.09
2017-09-09T05:16:56.751Z,16.03
2017-09-09T05:19:25.103Z,15.95
2017-09-09T05:21:53.428Z,16.00
2017-09-09T05:24:22.509Z,16.01
2017-09-09T05:26:50.830Z,15.99
2017-09-09T05:29:19.153Z,15.96
2017-09-09T05:31:47.462Z,15.97
2017-09-09T05:34:16.538Z,15.97
2017-09-09T05:36:44.855Z,16.00
2017-09-09T05:39:13.167Z,16.03
2017-09-09T05:41:41.470Z,16.08
2017-09-09T05:44:09.774Z,16.06
2017-09-09T05:46:38.858Z,16.10
2017-09-09T05:49:07.924Z,16.08
2017-09-09T05:51:36.253Z,16.11
2017-09-09T05:54:04.552Z,16.13
2017-09-09T05:56:32.858Z,16.11
2017-09-09T05:59:01.191Z,16.08
2017-09-09T06:01:29.506Z,16.11
2017-09-09T06:03:57.849Z,16.19
2017-09-09T06:06:26.155Z,16.14
2017-09-09T06:08:54.479Z,16.05
2017-09-09T06:11:22.788Z,16.06
2017-09-09T06:13:51.118Z,16.10
2017-09-09T06:16:20.186Z,16.09
2017-09-09T06:18:48.495Z,16.06
2017-09-09T06:21:17.586Z,16.09
2017-09-09T06:23:46.692Z,16.12
2017-09-09T06:26:14.989Z,16.17
2017-09-09T06:28:43.298Z,16.15
2017-09-09T06:31:11.602Z,16.20
2017-09-09T06:33:39.936Z,16.26
2017-09-09T06:36:08.252Z,16.22
2017-09-09T06:38:36.564Z,16.20
2017-09-09T06:41:04.881Z,16.19
2017-09-09T06:43:33.178Z,16.22
2017-09-09T06:46:01.518Z,16.31
2017-09-09T06:48:29.813Z,16.28
2017-09-09T06:50:58.117Z,16.29
2017-09-09T06:53:26.450Z,16.40
2017-09-09T06:55:54.746Z,16.47
2017-09-09T06:58:23.046Z,16.49
2017-09-09T07:00:51.345Z,16.48
2017-09-09T07:03:20.438Z,16.50
2017-09-09T07:05:49.497Z,16.48
2017-09-09T07:08:17.839Z,16.45
2017-09-09T07:10:46.163Z,16.39
2017-09-09T07:13:14.462Z,16.33
2017-09-09T07:15:43.533Z,16.26
2017-09-09T07:18:11.825Z,16.22
2017-09-09T07:20:40.129Z,16.15
2017-09-09T07:23:09.199Z,16.10
2017-09-09T07:25:38.283Z,16.01
2017-09-09T07:28:06.603Z,15.94
2017-09-09T07:30:34.926Z,16.02
2017-09-09T07:33:03.229Z,15.90
2017-09-09T07:35:32.305Z,15.89
2017-09-09T07:38:00.603Z,15.85
2017-09-09T07:40:29.680Z,15.90
2017-09-09T07:42:57.991Z,15.92
2017-09-09T07:45:27.095Z,15.86
2017-09-09T07:47:55.406Z,15.92
2017-09-09T07:50:23.722Z,15.88
2017-09-09T07:52:52.811Z,15.93
2017-09-09T07:55:21.141Z,15.94
2017-09-09T07:57:49.448Z,15.94
2017-09-09T08:00:17.784Z,15.89
2017-09-09T08:02:46.101Z,15.94
2017-09-09T08:05:14.404Z,16.03
2017-09-09T08:07:43.485Z,15.99
2017-09-09T08:10:11.793Z,16.13
2017-09-09T08:12:40.873Z,16.14
2017-09-09T08:15:09.939Z,16.02
2017-09-09T08:17:38.254Z,16.01
2017-09-09T08:20:06.567Z,16.08
2017-09-09T08:22:34.906Z,16.01
2017-09-09T08:25:03.983Z,16.15
2017-09-09T08:27:32.301Z,16.09
2017-09-09T08:30:00.614Z,16.18
2017-09-09T08:32:28.909Z,16.26
2017-09-09T08:34:57.236Z,16.27
2017-09-09T08:37:25.610Z,16.30
2017-09-09T08:39:53.922Z,16.24
2017-09-09T08:42:22.226Z,16.25
2017-09-09T08:44:50.560Z,16.20
2017-09-09T08:47:18.858Z,16.30
2017-09-09T08:49:47.162Z,16.27
2017-09-09T08:52:15.478Z,16.33
2017-09-09T08:54:43.778Z,16.38
2017-09-09T08:57:12.093Z,16.39
2017-09-09T08:59:40.387Z,16.35
2017-09-09T09:02:09.470Z,16.34
2017-09-09T09:04:37.772Z,16.45
2017-09-09T09:07:06.107Z,16.56
2017-09-09T09:09:34.426Z,16.61
2017-09-09T09:12:02.728Z,16.82
2017-09-09T09:14:31.034Z,16.92
2017-09-09T09:16:59.337Z,17.01
2017-09-09T09:19:27.656Z,17.12
2017-09-09T09:21:55.950Z,17.26
2017-09-09T09:24:24.259Z,17.41
2017-09-09T09:26:53.347Z,17.71
2017-09-09T09:29:21.682Z,17.91
2017-09-09T09:31:49.984Z,18.06
2017-09-09T09:34:18.282Z,18.12
2017-09-09T09:36:46.593Z,18.31
2017-09-09T09:39:15.654Z,18.14
2017-09-09T09:41:43.966Z,18.10
2017-09-09T09:44:12.261Z,18.31
2017-09-09T09:46:40.593Z,18.31
2017-09-09T09:49:08.908Z,18.41
2017-09-09T09:51:37.212Z,18.54
2017-09-09T09:54:05.514Z,18.52
2017-09-09T09:56:33.811Z,18.52
2017-09-09T09:59:02.886Z,18.50
2017-09-09T10:01:31.189Z,18.65
2017-09-09T10:04:00.262Z,18.68
2017-09-09T10:06:28.568Z,18.63
2017-09-09T10:08:57.655Z,18.68
2017-09-09T10:11:26.718Z,18.60
2017-09-09T10:13:55.048Z,18.61
2017-09-09T10:16:23.343Z,18.63
2017-09-09T10:18:51.646Z,18.84
2017-09-09T10:21:19.962Z,19.08
2017-09-09T10:23:49.040Z,19.45
2017-09-09T10:26:18.114Z,20.13
2017-09-09T10:28:46.445Z,20.15
2017-09-09T10:31:14.778Z,20.64
2017-09-09T10:33:43.082Z,20.56
2017-09-09T10:36:12.138Z,21.25
2017-09-09T10:38:40.471Z,21.75
2017-09-09T10:41:08.774Z,21.58
2017-09-09T10:43:37.081Z,21.99
2017-09-09T10:46:05.370Z,24.69
2017-09-09T10:48:33.682Z,26.39
2017-09-09T10:51:01.994Z,26.63
2017-09-09T10:53:30.334Z,26.56
2017-09-09T10:55:58.631Z,25.63
2017-09-09T10:58:26.928Z,25.20
2017-09-09T11:00:55.240Z,26.04
2017-09-09T11:03:24.303Z,25.66
2017-09-09T11:05:52.655Z,23.82
2017-09-09T11:08:20.959Z,23.29
2017-09-09T11:10:49.266Z,23.80
2017-09-09T11:13:18.192Z,23.15
2017-09-09T11:15:46.535Z,22.17
2017-09-09T11:18:15.606Z,21.78
2017-09-09T11:20:43.915Z,21.97
2017-09-09T11:23:13.010Z,21.66
2017-09-09T11:25:42.114Z,21.50
2017-09-09T11:28:11.196Z,21.61
2017-09-09T11:30:40.286Z,22.17
2017-09-09T11:33:09.402Z,21.53
2017-09-09T11:35:38.482Z,22.10
2017-09-09T11:38:07.577Z,22.32
2017-09-09T11:40:36.666Z,22.73
2017-09-09T11:43:04.967Z,22.81
2017-09-09T11:45:33.283Z,22.72
2017-09-09T11:48:01.597Z,22.56
2017-09-09T11:50:29.897Z,22.88
2017-09-09T11:52:58.198Z,23.43
2017-09-09T11:55:26.510Z,24.40
2017-09-09T11:57:54.824Z,23.65
2017-09-09T12:00:23.147Z,23.79
2017-09-09T12:02:51.457Z,23.46
2017-09-09T12:05:19.786Z,22.90
2017-09-09T12:07:48.090Z,22.25
2017-09-09T12:10:16.391Z,23.07
2017-09-09T12:12:44.701Z,22.16
2017-09-09T12:15:12.998Z,22.41
2017-09-09T12:17:41.310Z,22.91
2017-09-09T12:20:09.619Z,23.35
2017-09-09T12:22:38.722Z,23.44
2017-09-09T12:25:07.021Z,23.16
2017-09-09T12:27:35.330Z,23.59
2017-09-09T12:30:03.638Z,23.12
2017-09-09T12:32:32.717Z,22.36
2017-09-09T12:35:01.026Z,22.51
2017-09-09T12:37:29.335Z,21.45
2017-09-09T12:39:57.663Z,21.05
2017-09-09T12:42:26.734Z,20.83
2017-09-09T12:44:55.040Z,20.59
2017-09-09T12:47:24.108Z,20.48
2017-09-09T12:49:52.432Z,19.67
2017-09-09T12:52:20.745Z,18.80
2017-09-09T12:54:49.048Z,18.29
2017-09-09T12:57:17.346Z,18.21
2017-09-09T12:59:45.662Z,18.27
2017-09-09T13:02:13.989Z,18.11
2017-09-09T13:04:43.071Z,18.03
2017-09-09T13:07:11.383Z,18.19
2017-09-09T13:09:39.690Z,19.05
2017-09-09T13:12:07.998Z,19.83
2017-09-09T13:14:36.309Z,19.80
2017-09-09T13:17:05.377Z,19.96
2017-09-09T13:19:33.687Z,20.09
2017-09-09T13:22:01.986Z,20.35
2017-09-09T13:24:30.353Z,20.45
2017-09-09T13:26:58.660Z,20.63
2017-09-09T13:29:26.971Z,20.66
2017-09-09T13:31:55.273Z,20.52
2017-09-09T13:34:23.570Z,20.68
2017-09-09T13:36:51.886Z,21.16
2017-09-09T13:39:20.181Z,21.44
2017-09-09T13:41:49.283Z,21.25
2017-09-09T13:44:18.352Z,20.69
2017-09-09T13:46:46.651Z,20.73
2017-09-09T13:49:15.968Z,21.01
2017-09-09T13:51:44.260Z,21.60
2017-09-09T13:54:12.565Z,21.83
2017-09-09T13:56:40.852Z,21.88
2017-09-09T13:59:09.162Z,22.27
2017-09-09T14:01:38.223Z,22.51
2017-09-09T14:04:06.554Z,22.10
2017-09-09T14:06:34.851Z,21.71
2017-09-09T14:09:03.161Z,21.48
2017-09-09T14:11:31.492Z,21.28
2017-09-09T14:13:59.798Z,22.15
2017-09-09T14:16:28.101Z,21.90
2017-09-09T14:18:56.397Z,22.57
2017-09-09T14:21:25.463Z,22.14
2017-09-09T14:23:53.758Z,22.63
2017-09-09T14:26:22.847Z,22.35
2017-09-09T14:28:51.142Z,22.50
2017-09-09T14:31:20.222Z,22.43
2017-09-09T14:33:48.526Z,22.39
2017-09-09T14:36:17.646Z,22.16
2017-09-09T14:38:45.950Z,21.55
2017-09-09T14:41:14.246Z,20.78
2017-09-09T14:43:42.570Z,20.86
2017-09-09T14:46:10.865Z,21.38
2017-09-09T14:48:39.163Z,21.78
2017-09-09T14:51:07.482Z,21.17
2017-09-09T14:53:36.542Z,21.21
2017-09-09T14:56:04.841Z,21.72
2017-09-09T14:58:33.902Z,21.84
2017-09-09T15:01:02.220Z,22.27
2017-09-09T15:03:31.294Z,21.42
2017-09-09T15:05:59.605Z,20.91
2017-09-09T15:08:27.907Z,20.68
2017-09-09T15:10:56.225Z,20.67
2017-09-09T15:13:24.534Z,20.66
2017-09-09T15:15:53.733Z,20.77
2017-09-09T15:18:22.133Z,20.77
2017-09-09T15:20:50.430Z,20.79
2017-09-09T15:23:18.738Z,20.86
2017-09-09T15:25:47.103Z,20.74
2017-09-09T15:28:15.410Z,20.80
2017-09-09T15:30:44.480Z,20.95
2017-09-09T15:33:12.790Z,21.07
2017-09-09T15:35:41.105Z,20.83
2017-09-09T15:38:09.414Z,20.77
2017-09-09T15:40:37.710Z,20.79
2017-09-09T15:43:06.802Z,20.97
2017-09-09T15:45:35.869Z,20.85
2017-09-09T15:48:04.165Z,20.60
2017-09-09T15:50:32.470Z,20.52
2017-09-09T15:53:00.771Z,20.34
2017-09-09T15:55:29.078Z,20.29
2017-09-09T15:57:57.376Z,20.34
2017-09-09T16:00:26.474Z,20.26
2017-09-09T16:02:55.539Z,20.12
2017-09-09T16:05:23.838Z,19.96
2017-09-09T16:07:52.151Z,19.99
2017-09-09T16:10:20.457Z,19.91
2017-09-09T16:12:48.770Z,19.87
2017-09-09T16:15:17.075Z,19.92
2017-09-09T16:17:45.395Z,19.84
2017-09-09T16:20:13.717Z,19.83
2017-09-09T16:22:42.814Z,19.82
2017-09-09T16:25:11.885Z,19.79
2017-09-09T16:27:40.185Z,19.76
2017-09-09T16:30:09.252Z,19.69
2017-09-09T16:32:37.555Z,19.61
2017-09-09T16:35:06.639Z,19.58
2017-09-09T16:37:35.710Z,19.68
2017-09-09T16:40:04.014Z,19.61
2017-09-09T16:42:32.301Z,19.54
2017-09-09T16:45:01.395Z,19.61
2017-09-09T16:47:30.463Z,19.51
2017-09-09T16:49:58.757Z,19.64
2017-09-09T16:52:27.078Z,19.63
2017-09-09T16:54:55.382Z,19.55
2017-09-09T16:57:23.726Z,19.46
2017-09-09T16:59:52.030Z,19.44
2017-09-09T17:02:20.325Z,19.37
2017-09-09T17:04:48.631Z,19.35
2017-09-09T17:07:17.693Z,19.27
2017-09-09T17:09:46.003Z,19.21
2017-09-09T17:12:14.943Z,19.08
2017-09-09T17:14:43.254Z,18.96
2017-09-09T17:17:11.575Z,18.79
2017-09-09T17:19:39.907Z,18.78
2017-09-09T17:22:08.215Z,18.61
2017-09-09T17:24:36.514Z,18.59
2017-09-09T17:27:04.821Z,18.49
2017-09-09T17:29:33.122Z,18.46
2017-09-09T17:32:01.425Z,18.39
2017-09-09T17:34:30.544Z,18.35
2017-09-09T17:36:58.849Z,18.28
2017-09-09T17:39:27.154Z,18.22
2017-09-09T17:41:56.230Z,18.17
2017-09-09T17:44:24.530Z,18.12
2017-09-09T17:46:53.611Z,18.09
2017-09-09T17:49:21.906Z,18.09
2017-09-09T17:51:51.062Z,18.08
2017-09-09T17:54:19.366Z,18.09
2017-09-09T17:56:47.662Z,18.05
2017-09-09T17:59:16.748Z,18.01
2017-09-09T18:01:45.045Z,17.97
2017-09-09T18:04:13.350Z,17.94
2017-09-09T18:06:41.650Z,17.89
2017-09-09T18:09:09.974Z,17.87
2017-09-09T18:11:38.278Z,17.77
2017-09-09T18:14:06.585Z,17.70
2017-09-09T18:16:34.878Z,17.65
2017-09-09T18:19:03.959Z,17.71
2017-09-09T18:21:32.258Z,17.66
2017-09-09T18:24:01.355Z,17.58
2017-09-09T18:26:30.418Z,17.57
2017-09-09T18:28:58.718Z,17.56
2017-09-09T18:31:27.812Z,17.52
2017-09-09T18:33:56.132Z,17.54
2017-09-09T18:36:24.439Z,17.47
2017-09-09T18:38:52.735Z,17.54
2017-09-09T18:41:21.067Z,17.50
2017-09-09T18:43:50.054Z,17.49
2017-09-09T18:46:18.391Z,17.46
2017-09-09T18:48:47.466Z,17.50
2017-09-09T18:51:15.770Z,17.53
2017-09-09T18:53:44.082Z,17.56
2017-09-09T18:56:12.374Z,17.54
2017-09-09T18:58:40.674Z,17.57
2017-09-09T19:01:08.971Z,17.47
2017-09-09T19:03:38.047Z,17.45
2017-09-09T19:06:06.345Z,17.46
2017-09-09T19:08:35.418Z,17.49
2017-09-09T19:11:03.719Z,17.50
2017-09-09T19:13:32.790Z,17.44
2017-09-09T19:16:01.111Z,17.35
2017-09-09T19:18:29.417Z,17.15
2017-09-09T19:20:57.712Z,16.82
2017-09-09T19:23:26.050Z,16.68
2017-09-09T19:25:54.357Z,16.29
2017-09-09T19:28:22.680Z,16.24
2017-09-09T19:30:51.753Z,16.23
2017-09-09T19:33:20.066Z,15.98
2017-09-09T19:35:49.162Z,15.97
2017-09-09T19:38:18.234Z,15.86
2017-09-09T19:40:46.530Z,15.84
2017-09-09T19:43:15.605Z,15.87
2017-09-09T19:45:43.898Z,15.85
2017-09-09T19:48:12.975Z,15.82
2017-09-09T19:50:41.278Z,15.82
2017-09-09T19:53:09.627Z,15.86
2017-09-09T19:55:37.927Z,15.61
2017-09-09T19:58:06.999Z,15.64
2017-09-09T20:00:35.333Z,15.64
2017-09-09T20:03:03.635Z,15.64
2017-09-09T20:05:31.949Z,15.67
2017-09-09T20:08:01.015Z,15.71
2017-09-09T20:10:29.337Z,15.73
2017-09-09T20:12:57.638Z,15.70
2017-09-09T20:15:25.954Z,15.75
2017-09-09T20:17:54.269Z,15.80
2017-09-09T20:20:22.599Z,15.72
2017-09-09T20:22:50.921Z,15.70
2017-09-09T20:25:19.239Z,15.66
2017-09-09T20:27:47.544Z,15.58
2017-09-09T20:30:15.846Z,15.51
2017-09-09T20:32:44.460Z,15.53
2017-09-09T20:35:12.757Z,15.50
2017-09-09T20:37:41.055Z,15.51
2017-09-09T20:40:09.380Z,15.49
2017-09-09T20:42:37.678Z,15.55
2017-09-09T20:45:05.983Z,15.57
2017-09-09T20:47:34.286Z,15.55
2017-09-09T20:50:03.358Z,15.59
2017-09-09T20:52:31.664Z,15.65
2017-09-09T20:55:00.734Z,15.66
2017-09-09T20:57:29.072Z,15.63
2017-09-09T20:59:57.417Z,15.54
2017-09-09T21:02:26.473Z,15.52
2017-09-09T21:04:54.770Z,15.56
2017-09-09T21:07:23.850Z,15.48
2017-09-09T21:09:52.160Z,15.46
2017-09-09T21:12:21.259Z,15.45
2017-09-09T21:14:50.321Z,15.43
2017-09-09T21:17:18.630Z,15.44
2017-09-09T21:19:47.708Z,15.43
2017-09-09T21:22:17.494Z,15.40
2017-09-09T21:24:45.789Z,15.38
2017-09-09T21:27:14.108Z,15.39
2017-09-09T21:29:42.419Z,15.40
2017-09-09T21:32:10.722Z,15.46
2017-09-09T21:34:39.058Z,15.41
2017-09-09T21:37:07.390Z,15.41
2017-09-09T21:39:36.469Z,15.36
2017-09-09T21:42:04.787Z,15.29
2017-09-09T21:44:33.130Z,15.33
2017-09-09T21:47:01.439Z,15.34
2017-09-09T21:49:29.743Z,15.26
2017-09-09T21:51:58.063Z,15.27
2017-09-09T21:54:27.140Z,15.30
2017-09-09T21:56:56.091Z,15.26
2017-09-09T21:59:24.398Z,15.22
2017-09-09T22:01:52.714Z,15.24
2017-09-09T22:04:21.810Z,15.25
2017-09-09T22:06:50.954Z,15.18
2017-09-09T22:09:19.259Z,15.18
2017-09-09T22:11:47.562Z,15.17
2017-09-09T22:14:15.875Z,15.16
2017-09-09T22:16:44.177Z,15.07
2017-09-09T22:19:12.480Z,15.09
2017-09-09T22:21:42.375Z,15.08
2017-09-09T22:24:10.696Z,15.11
2017-09-09T22:26:39.773Z,15.11
2017-09-09T22:29:08.851Z,15.07
2017-09-09T22:31:37.158Z,15.11
2017-09-09T22:34:06.257Z,15.02
2017-09-09T22:36:35.328Z,15.08
2017-09-09T22:39:03.666Z,15.03
2017-09-09T22:41:31.974Z,15.02
2017-09-09T22:44:00.266Z,15.00
2017-09-09T22:46:29.345Z,15.03
2017-09-09T22:48:57.638Z,15.10
2017-09-09T22:51:26.714Z,15.06
2017-09-09T22:53:55.010Z,15.02
2017-09-09T22:56:24.088Z,14.98
2017-09-09T22:58:52.389Z,15.02
2017-09-09T23:01:21.506Z,15.06
2017-09-09T23:03:49.817Z,15.01
2017-09-09T23:06:18.125Z,14.98
2017-09-09T23:08:46.442Z,14.97
2017-09-09T23:11:14.743Z,14.99
2017-09-09T23:13:43.052Z,14.97
2017-09-09T23:16:11.350Z,15.01
2017-09-09T23:18:40.430Z,15.00
2017-09-09T23:21:08.721Z,15.02
2017-09-09T23:23:37.798Z,14.97
2017-09-09T23:26:06.102Z,14.95
2017-09-09T23:28:35.170Z,14.92
2017-09-09T23:31:03.498Z,14.96
2017-09-09T23:33:31.790Z,14.86
2017-09-09T23:36:00.099Z,14.77
2017-09-09T23:38:28.394Z,14.76
2017-09-09T23:40:57.461Z,14.75
2017-09-09T23:43:25.760Z,14.73
2017-09-09T23:45:54.864Z,14.73
2017-09-09T23:48:23.937Z,14.76
2017-09-09T23:50:52.238Z,14.78
2017-09-09T23:53:21.313Z,14.75
2017-09-09T23:55:49.610Z,14.74
2017-09-09T23:58:18.680Z,14.72
